San Patricio, New Mexico
Current Conditions -  °F | °C
As of 6:51 AM on Wednesday 22 Oct 2014 (Local Time) from KROW Reporting Station
Haze Haze  
Wind Chill: 59°   Ceiling: 1800
Heat Index: 59°   Visibility: 0.5mi
Dew Point: 58°   Wind: 5mph
Humidity: 96%   Direction: 230°SW
Pressure: 30.1"   Gusts: NA
Location:  33.41°N, 105.33°W
Report Text: KROW 221251Z 23004KT 1/2SM BR BKN018 15/14 A3010 RMK AO2 SFC VIS 2 1/2 SLP150 T01500144
Loading
Personal Weather Stations






























Interactive Weather Map
Tropical Storm Tracking
New forecast layout! Learn more

10-Day Weather Forecast

Advertisements
Track Severe Weather on mobile